Time;durP1;ratioP1;P1;durP2;ratioP2;P2;SDS_P1;SDS_P2;PMS_P1;PMS_P2;Temp;Humidity;BMP_temperature;BMP_pressure;BME280_temperature;BME280_humidity;BME280_pressure;Samples;Min_cycle;Max_cycle;Signal;HPM_P1;HPM_P2
2022/07/27 00:00:52;;;;;;;;;;;;;;;;;;4940225;28;19930;-85
2022/07/27 00:03:19;;;;;;;;;;;;;;;;;;4978256;28;19989;-85
2022/07/27 00:05:46;;;;;;;;;;;;;;;;;;4940011;28;19944;-86
2022/07/27 00:08:14;;;;;;;;;;;;;;;;;;4957951;28;19997;-85
2022/07/27 00:10:41;;;;;;;;;;;;;;;;;;4974183;28;20025;-85
2022/07/27 00:13:08;;;;;;;;;;;;;;;;;;4957740;28;19930;-85
2022/07/27 00:15:35;;;;;;;;;;;;;;;;;;4972866;28;19930;-84
2022/07/27 00:18:03;;;;;;;;;;;;;;;;;;4971798;28;20918;-85
2022/07/27 00:20:30;;;;;;;;;;;;;;;;;;4999180;28;19990;-87
2022/07/27 00:22:57;;;;;;;;;;;;;;;;;;5003626;28;19916;-85
2022/07/27 00:25:25;;;;;;;;;;;;;;;;;;4998802;28;19960;-83
2022/07/27 00:27:52;;;;;;;;;;;;;;;;;;4998471;28;19910;-86
2022/07/27 00:30:20;;;;;;;;;;;;;;;;;;4979596;28;19946;-83
2022/07/27 00:32:47;;;;;;;;;;;;;;;;;;4993331;28;19910;-86
2022/07/27 00:35:15;;;;;;;;;;;;;;;;;;4982998;28;19962;-86
2022/07/27 00:37:42;;;;;;;;;;;;;;;;;;4973695;28;19937;-84
2022/07/27 00:40:09;;;;;;;;;;;;;;;;;;4973203;28;19933;-85
2022/07/27 00:42:36;;;;;;;;;;;;;;;;;;4965477;28;19930;-85
2022/07/27 00:45:04;;;;;;;;;;;;;;;;;;4954248;28;20372;-85
2022/07/27 00:47:31;;;;;;;;;;;;;;;;;;4962498;28;19929;-85
2022/07/27 00:49:58;;;;;;;;;;;;;;;;;;4972726;28;19934;-84
2022/07/27 00:52:25;;;;;;;;;;;;;;;;;;4972739;28;20372;-85
2022/07/27 00:54:53;;;;;;;;;;;;;;;;;;4972292;28;19966;-85
2022/07/27 00:57:20;;;;;;;;;;;;;;;;;;4972471;28;20335;-85
2022/07/27 00:59:47;;;;;;;;;;;;;;;;;;4972780;28;19936;-85
2022/07/27 01:02:15;;;;;;;;;;;;;;;;;;4955723;28;19998;-84
2022/07/27 01:04:45;;;;;;;;;;;;;;;;;;4956094;28;19930;-85
2022/07/27 01:07:13;;;;;;;;;;;;;;;;;;4954329;28;19977;-85
2022/07/27 01:09:55;;;;;;;;;;;;;;;;;;4971982;28;19961;-84
2022/07/27 01:12:22;;;;;;;;;;;;;;;;;;4972299;28;19926;-85
2022/07/27 01:14:50;;;;;;;;;;;;;;;;;;4972040;28;19930;-85
2022/07/27 01:17:17;;;;;;;;;;;;;;;;;;4972494;28;19957;-84
2022/07/27 01:19:44;;;;;;;;;;;;;;;;;;4971239;28;19931;-84
2022/07/27 01:22:11;;;;;;;;;;;;;;;;;;4936366;29;19933;-84
2022/07/27 01:24:39;;;;;;;;;;;;;;;;;;4969062;28;20423;-84
2022/07/27 01:27:06;;;;;;;;;;;;;;;;;;4955294;28;19938;-84
2022/07/27 01:29:33;;;;;;;;;;;;;;;;;;4970872;28;19926;-85
2022/07/27 01:32:00;;;;;;;;;;;;;;;;;;4972392;28;19930;-85
2022/07/27 01:34:28;;;;;;;;;;;;;;;;;;4955320;28;19926;-85
2022/07/27 01:36:55;;;;;;;;;;;;;;;;;;4972842;28;19930;-84
2022/07/27 01:39:22;;;;;;;;;;;;;;;;;;4971302;28;19936;-85
2022/07/27 01:41:49;;;;;;;;;;;;;;;;;;4938883;28;19934;-84
2022/07/27 01:44:17;;;;;;;;;;;;;;;;;;4954758;28;20029;-84
2022/07/27 01:46:44;;;;;;;;;;;;;;;;;;4971855;28;19926;-85
2022/07/27 01:49:11;;;;;;;;;;;;;;;;;;4954662;28;19930;-84
2022/07/27 01:51:39;;;;;;;;;;;;;;;;;;4954324;28;20338;-84
2022/07/27 01:54:07;;;;;;;;;;;;;;;;;;4955106;28;20211;-84
2022/07/27 01:56:38;;;;;;;;;;;;;;;;;;4971131;28;20033;-86
2022/07/27 01:59:06;;;;;;;;;;;;;;;;;;4954236;28;20013;-85
2022/07/27 02:01:33;;;;;;;;;;;;;;;;;;4953768;28;19941;-85
2022/07/27 02:04:00;;;;;;;;;;;;;;;;;;4970597;28;20442;-86
2022/07/27 02:06:28;;;;;;;;;;;;;;;;;;4954605;28;19930;-85
2022/07/27 02:08:55;;;;;;;;;;;;;;;;;;4971895;28;19936;-84
2022/07/27 02:14:08;;;;;;;;;;;;;;;;;;4953986;28;20052;-85
2022/07/27 02:16:36;;;;;;;;;;;;;;;;;;4952507;28;19930;-85
2022/07/27 02:19:03;;;;;;;;;;;;;;;;;;4989517;28;19933;-85
2022/07/27 02:21:30;;;;;;;;;;;;;;;;;;4975535;28;19910;-85
2022/07/27 02:23:58;;;;;;;;;;;;;;;;;;4994313;28;19989;-85
2022/07/27 02:26:26;;;;;;;;;;;;;;;;;;4980352;28;19981;-84
2022/07/27 02:28:53;;;;;;;;;;;;;;;;;;4981593;28;19918;-87
2022/07/27 02:31:20;;;;;;;;;;;;;;;;;;4951490;28;19910;-84
2022/07/27 02:33:48;;;;;;;;;;;;;;;;;;4989163;28;19946;-86
2022/07/27 02:36:15;;;;;;;;;;;;;;;;;;4972392;28;20387;-84
2022/07/27 02:38:42;;;;;;;;;;;;;;;;;;4973137;28;19926;-84
2022/07/27 02:41:10;;;;;;;;;;;;;;;;;;4946944;28;20392;-84
2022/07/27 02:43:37;;;;;;;;;;;;;;;;;;4944661;28;19930;-85
2022/07/27 02:46:04;;;;;;;;;;;;;;;;;;4955666;28;20013;-85
2022/07/27 02:48:32;;;;;;;;;;;;;;;;;;4971964;28;19926;-84
2022/07/27 02:50:59;;;;;;;;;;;;;;;;;;4955389;28;20021;-86
2022/07/27 02:53:26;;;;;;;;;;;;;;;;;;4955766;28;19930;-85
2022/07/27 02:55:54;;;;;;;;;;;;;;;;;;4971775;28;19980;-85
2022/07/27 02:58:21;;;;;;;;;;;;;;;;;;4961836;28;20460;-85
2022/07/27 03:00:49;;;;;;;;;;;;;;;;;;4935845;29;19933;-85
2022/07/27 03:03:19;;;;;;;;;;;;;;;;;;4938773;28;19934;-84
2022/07/27 03:05:47;;;;;;;;;;;;;;;;;;4953892;28;19930;-84
2022/07/27 03:08:14;;;;;;;;;;;;;;;;;;4971241;28;19945;-85
2022/07/27 03:10:42;;;;;;;;;;;;;;;;;;4971525;28;19989;-86
2022/07/27 03:13:15;;;;;;;;;;;;;;;;;;4955009;28;19937;-84
2022/07/27 03:15:42;;;;;;;;;;;;;;;;;;4954607;28;19936;-85
2022/07/27 03:18:09;;;;;;;;;;;;;;;;;;4972150;28;19986;-85
2022/07/27 03:20:37;;;;;;;;;;;;;;;;;;4967373;28;20312;-84
2022/07/27 03:23:04;;;;;;;;;;;;;;;;;;4975563;28;19926;-85
2022/07/27 03:25:31;;;;;;;;;;;;;;;;;;4972118;28;20385;-86
2022/07/27 03:27:58;;;;;;;;;;;;;;;;;;4975874;28;19941;-85
2022/07/27 03:30:30;;;;;;;;;;;;;;;;;;4960057;28;19933;-85
2022/07/27 03:32:57;;;;;;;;;;;;;;;;;;4980785;28;19960;-84
2022/07/27 03:35:24;;;;;;;;;;;;;;;;;;4981047;28;19933;-85
2022/07/27 03:37:52;;;;;;;;;;;;;;;;;;4981619;28;19924;-86
2022/07/27 03:40:19;;;;;;;;;;;;;;;;;;4998064;28;19961;-85
2022/07/27 03:42:46;;;;;;;;;;;;;;;;;;4982325;28;19941;-86
2022/07/27 03:45:13;;;;;;;;;;;;;;;;;;4999051;28;19918;-85
2022/07/27 03:47:40;;;;;;;;;;;;;;;;;;4998772;28;19946;-85
2022/07/27 03:50:08;;;;;;;;;;;;;;;;;;4982466;28;19981;-85
2022/07/27 03:52:35;;;;;;;;;;;;;;;;;;4982632;28;20150;-86
2022/07/27 03:55:02;;;;;;;;;;;;;;;;;;4982508;28;19933;-86
2022/07/27 03:57:30;;;;;;;;;;;;;;;;;;4999165;28;19930;-86
2022/07/27 03:59:57;;;;;;;;;;;;;;;;;;4999917;28;19943;-87
2022/07/27 04:02:24;;;;;;;;;;;;;;;;;;4966274;28;19977;-85
2022/07/27 04:04:52;;;;;;;;;;;;;;;;;;4997875;28;19921;-85
2022/07/27 04:07:19;;;;;;;;;;;;;;;;;;4999290;28;19927;-84
2022/07/27 04:09:47;;;;;;;;;;;;;;;;;;4981809;28;19941;-85
2022/07/27 04:12:14;;;;;;;;;;;;;;;;;;4999231;28;20103;-87
2022/07/27 04:14:42;;;;;;;;;;;;;;;;;;4963675;28;19986;-86
2022/07/27 04:17:10;;;;;;;;;;;;;;;;;;4998391;28;19922;-86
2022/07/27 04:19:37;;;;;;;;;;;;;;;;;;4975014;28;19994;-85
2022/07/27 04:22:04;;;;;;;;;;;;;;;;;;4960527;29;19911;-86
2022/07/27 04:24:31;;;;;;;;;;;;;;;;;;4979937;29;19985;-84
2022/07/27 04:26:59;;;;;;;;;;;;;;;;;;4979254;28;19917;-83
2022/07/27 04:29:26;;;;;;;;;;;;;;;;;;4999486;28;19914;-84
2022/07/27 04:31:53;;;;;;;;;;;;;;;;;;5000019;28;20017;-85
2022/07/27 04:34:20;;;;;;;;;;;;;;;;;;4996059;28;19976;-82
2022/07/27 04:36:48;;;;;;;;;;;;;;;;;;4984384;28;20414;-85
2022/07/27 04:39:16;;;;;;;;;;;;;;;;;;4954882;29;20475;-85
2022/07/27 04:41:43;;;;;;;;;;;;;;;;;;4951278;28;20020;-84
2022/07/27 04:44:10;;;;;;;;;;;;;;;;;;4959199;28;19988;-86
2022/07/27 04:46:38;;;;;;;;;;;;;;;;;;4975804;28;19934;-85
2022/07/27 04:49:05;;;;;;;;;;;;;;;;;;4942466;28;19932;-85
2022/07/27 04:51:34;;;;;;;;;;;;;;;;;;4981065;28;20372;-85
2022/07/27 04:54:01;;;;;;;;;;;;;;;;;;4977041;28;19961;-84
2022/07/27 04:56:30;;;;;;;;;;;;;;;;;;4962911;28;19989;-84
2022/07/27 04:58:57;;;;;;;;;;;;;;;;;;4961249;28;20295;-86
2022/07/27 05:01:24;;;;;;;;;;;;;;;;;;4952806;28;19958;-86
2022/07/27 05:03:54;;;;;;;;;;;;;;;;;;4957122;28;19930;-85
2022/07/27 05:06:21;;;;;;;;;;;;;;;;;;4961131;28;20028;-84
2022/07/27 05:08:49;;;;;;;;;;;;;;;;;;4978363;28;19941;-85
2022/07/27 05:11:16;;;;;;;;;;;;;;;;;;4979734;28;20376;-85
2022/07/27 05:13:43;;;;;;;;;;;;;;;;;;4982349;28;19930;-86
2022/07/27 05:16:11;;;;;;;;;;;;;;;;;;4975308;28;20471;-85
2022/07/27 05:18:38;;;;;;;;;;;;;;;;;;4955375;28;19930;-85
2022/07/27 05:21:05;;;;;;;;;;;;;;;;;;4975274;23;19926;-83
2022/07/27 05:23:33;;;;;;;;;;;;;;;;;;4935068;28;19985;-83
2022/07/27 05:26:00;;;;;;;;;;;;;;;;;;4968319;28;20009;-83
2022/07/27 05:28:28;;;;;;;;;;;;;;;;;;4951963;28;19926;-84
2022/07/27 05:30:57;;;;;;;;;;;;;;;;;;4919054;28;20295;-84
2022/07/27 05:33:25;;;;;;;;;;;;;;;;;;4951847;28;19938;-83
2022/07/27 05:35:52;;;;;;;;;;;;;;;;;;4971486;28;19972;-82
2022/07/27 05:38:19;;;;;;;;;;;;;;;;;;4967143;28;20016;-82
2022/07/27 05:40:47;;;;;;;;;;;;;;;;;;4950647;28;19930;-83
2022/07/27 05:43:14;;;;;;;;;;;;;;;;;;4952870;28;19985;-84
2022/07/27 05:45:42;;;;;;;;;;;;;;;;;;4950684;28;19985;-84
2022/07/27 05:48:09;;;;;;;;;;;;;;;;;;4969700;28;19980;-84
2022/07/27 05:50:36;;;;;;;;;;;;;;;;;;4970622;28;19930;-85
2022/07/27 05:53:04;;;;;;;;;;;;;;;;;;4976752;28;19937;-83
2022/07/27 05:55:32;;;;;;;;;;;;;;;;;;4963893;28;19937;-82
2022/07/27 05:57:59;;;;;;;;;;;;;;;;;;4981421;28;19986;-81
2022/07/27 06:00:27;;;;;;;;;;;;;;;;;;4966444;28;19933;-84
2022/07/27 06:02:54;;;;;;;;;;;;;;;;;;4983791;28;19957;-83
2022/07/27 06:05:22;;;;;;;;;;;;;;;;;;4980285;28;19950;-83
2022/07/27 06:07:59;;;;;;;;;;;;;;;;;;4952427;28;19976;-82
2022/07/27 06:10:26;;;;;;;;;;;;;;;;;;4966986;28;20025;-83
2022/07/27 06:12:54;;;;;;;;;;;;;;;;;;4968536;28;19934;-83
2022/07/27 06:15:21;;;;;;;;;;;;;;;;;;4964793;28;19930;-83
2022/07/27 06:17:51;;;;;;;;;;;;;;;;;;4937504;28;19961;-82
2022/07/27 06:20:19;;;;;;;;;;;;;;;;;;4950806;28;19933;-84
2022/07/27 06:22:46;;;;;;;;;;;;;;;;;;4957646;28;19930;-83
2022/07/27 06:25:14;;;;;;;;;;;;;;;;;;4936668;28;20413;-83
2022/07/27 06:27:41;;;;;;;;;;;;;;;;;;4944804;28;19977;-83
2022/07/27 06:30:08;;;;;;;;;;;;;;;;;;4966571;28;19934;-83
2022/07/27 06:32:36;;;;;;;;;;;;;;;;;;4962454;28;19974;-84
2022/07/27 06:35:03;;;;;;;;;;;;;;;;;;4965440;28;20729;-81
2022/07/27 06:37:30;;;;;;;;;;;;;;;;;;4963378;28;19930;-82
2022/07/27 06:39:59;;;;;;;;;;;;;;;;;;4967444;28;19930;-83
2022/07/27 06:43:30;;;;;;;;;;;;;;;;;;5256402;23;20024;-75
2022/07/27 06:45:58;;;;;;;;;;;;;;;;;;4950680;28;20481;-75
2022/07/27 06:48:25;;;;;;;;;;;;;;;;;;4963172;28;19997;-75
2022/07/27 06:50:52;;;;;;;;;;;;;;;;;;4952758;28;20029;-75
2022/07/27 06:53:20;;;;;;;;;;;;;;;;;;4934047;28;19935;-75
2022/07/27 06:55:47;;;;;;;;;;;;;;;;;;4939820;28;19930;-74
2022/07/27 06:58:15;;;;;;;;;;;;;;;;;;4939173;28;19937;-75
2022/07/27 07:00:42;;;;;;;;;;;;;;;;;;4947507;28;19950;-75
2022/07/27 07:03:10;;;;;;;;;;;;;;;;;;4942453;28;19934;-75
2022/07/27 07:05:37;;;;;;;;;;;;;;;;;;4945634;29;20367;-75
2022/07/27 07:08:10;;;;;;;;;;;;;;;;;;4941491;28;20041;-73
2022/07/27 07:10:37;;;;;;;;;;;;;;;;;;4945332;29;20016;-74
2022/07/27 07:13:05;;;;;;;;;;;;;;;;;;4944147;28;19930;-74
2022/07/27 07:15:32;;;;;;;;;;;;;;;;;;4942502;28;19943;-76
2022/07/27 07:18:01;;;;;;;;;;;;;;;;;;4941935;28;19941;-74
2022/07/27 07:20:29;;;;;;;;;;;;;;;;;;4937235;28;19965;-75
2022/07/27 07:22:56;;;;;;;;;;;;;;;;;;4935985;29;19927;-75
2022/07/27 07:25:23;;;;;;;;;;;;;;;;;;4945718;29;20021;-75
2022/07/27 07:27:51;;;;;;;;;;;;;;;;;;4942538;29;19934;-75
2022/07/27 07:30:18;;;;;;;;;;;;;;;;;;4952413;28;20022;-74
2022/07/27 07:32:46;;;;;;;;;;;;;;;;;;4944339;28;19938;-74
2022/07/27 07:35:13;;;;;;;;;;;;;;;;;;4943036;28;20030;-74
2022/07/27 07:37:41;;;;;;;;;;;;;;;;;;4942952;28;19926;-74
2022/07/27 07:40:09;;;;;;;;;;;;;;;;;;4936898;29;20037;-74
2022/07/27 07:42:56;;;;;;;;;;;;;;;;;;4936545;28;19931;-73
2022/07/27 07:45:24;;;;;;;;;;;;;;;;;;4946870;29;20026;-75
2022/07/27 07:47:51;;;;;;;;;;;;;;;;;;4944687;29;19937;-75
2022/07/27 07:50:19;;;;;;;;;;;;;;;;;;4938952;28;19937;-75
2022/07/27 07:52:46;;;;;;;;;;;;;;;;;;4934504;28;19950;-74
2022/07/27 07:55:13;;;;;;;;;;;;;;;;;;4937127;29;19930;-74
2022/07/27 07:57:40;;;;;;;;;;;;;;;;;;4931473;29;20021;-75
2022/07/27 08:00:08;;;;;;;;;;;;;;;;;;4929110;28;19927;-74
2022/07/27 08:02:38;;;;;;;;;;;;;;;;;;4930124;29;19965;-74
2022/07/27 08:05:06;;;;;;;;;;;;;;;;;;4942218;28;20313;-75
2022/07/27 08:07:33;;;;;;;;;;;;;;;;;;4948933;28;19930;-75
2022/07/27 08:10:00;;;;;;;;;;;;;;;;;;4946924;28;20089;-75
2022/07/27 08:12:27;;;;;;;;;;;;;;;;;;4937803;29;19934;-74
2022/07/27 08:14:55;;;;;;;;;;;;;;;;;;4939108;28;20029;-76
2022/07/27 08:17:22;;;;;;;;;;;;;;;;;;4944608;29;19927;-76
2022/07/27 08:19:49;;;;;;;;;;;;;;;;;;4948502;28;19953;-76
2022/07/27 08:22:16;;;;;;;;;;;;;;;;;;4945331;28;19946;-77
2022/07/27 08:24:44;;;;;;;;;;;;;;;;;;4940996;29;20379;-76
2022/07/27 08:27:11;;;;;;;;;;;;;;;;;;4948593;29;19930;-76
2022/07/27 08:29:39;;;;;;;;;;;;;;;;;;4928723;28;19949;-76
2022/07/27 08:32:06;;;;;;;;;;;;;;;;;;4929473;28;19927;-76
2022/07/27 08:34:33;;;;;;;;;;;;;;;;;;4933662;28;19930;-76
2022/07/27 08:37:01;;;;;;;;;;;;;;;;;;4931316;29;19926;-78
2022/07/27 08:39:28;;;;;;;;;;;;;;;;;;4941471;28;19968;-76
2022/07/27 08:42:15;;;;;;;;;;;;;;;;;;4936172;29;19930;-76
2022/07/27 08:44:43;;;;;;;;;;;;;;;;;;4945776;28;19931;-76
2022/07/27 08:47:10;;;;;;;;;;;;;;;;;;4942476;28;19930;-75
2022/07/27 08:49:37;;;;;;;;;;;;;;;;;;4939946;28;19931;-76
2022/07/27 08:52:10;;;;;;;;;;;;;;;;;;4934735;29;20025;-76
2022/07/27 08:54:37;;;;;;;;;;;;;;;;;;4936161;29;19934;-77
2022/07/27 08:57:04;;;;;;;;;;;;;;;;;;4948601;29;19970;-76
2022/07/27 08:59:31;;;;;;;;;;;;;;;;;;4926910;28;19938;-77
2022/07/27 09:02:00;;;;;;;;;;;;;;;;;;4934411;28;19931;-76
2022/07/27 09:04:29;;;;;;;;;;;;;;;;;;4945891;29;19927;-73
2022/07/27 09:06:56;;;;;;;;;;;;;;;;;;4952798;23;19986;-79
2022/07/27 09:09:24;;;;;;;;;;;;;;;;;;4944814;28;19930;-80
2022/07/27 09:11:51;;;;;;;;;;;;;;;;;;4934547;28;19934;-81
2022/07/27 09:14:18;;;;;;;;;;;;;;;;;;4937260;28;19930;-79
2022/07/27 09:16:45;;;;;;;;;;;;;;;;;;4956400;28;19981;-79
2022/07/27 09:19:33;;;;;;;;;;;;;;;;;;4954220;28;20005;-81
2022/07/27 09:22:02;;;;;;;;;;;;;;;;;;4939547;28;20189;-81
2022/07/27 09:24:30;;;;;;;;;;;;;;;;;;4963883;28;19930;-78
2022/07/27 09:27:12;;;;;;;;;;;;;;;;;;4964568;28;19941;-78
2022/07/27 09:29:39;;;;;;;;;;;;;;;;;;4937782;28;20344;-78
2022/07/27 09:32:07;;;;;;;;;;;;;;;;;;4954693;28;19965;-80
2022/07/27 09:34:36;;;;;;;;;;;;;;;;;;4953609;28;19934;-79
2022/07/27 09:37:05;;;;;;;;;;;;;;;;;;4939072;28;21338;-78
2022/07/27 09:39:32;;;;;;;;;;;;;;;;;;4922895;28;20317;-79
2022/07/27 09:42:00;;;;;;;;;;;;;;;;;;4929676;23;20053;-71
2022/07/27 09:44:28;;;;;;;;;;;;;;;;;;4924800;28;21182;-69
2022/07/27 09:46:58;;;;;;;;;;;;;;;;;;4923041;29;20038;-71
2022/07/27 09:49:26;;;;;;;;;;;;;;;;;;4911550;29;20333;-69
2022/07/27 09:51:53;;;;;;;;;;;;;;;;;;4927847;29;19935;-68
2022/07/27 09:54:28;;;;;;;;;;;;;;;;;;4929829;29;19990;-69
2022/07/27 09:56:56;;;;;;;;;;;;;;;;;;4937970;28;20021;-69
2022/07/27 09:59:23;;;;;;;;;;;;;;;;;;4938292;29;20302;-69
2022/07/27 10:01:50;;;;;;;;;;;;;;;;;;4936294;29;19941;-70
2022/07/27 10:04:21;;;;;;;;;;;;;;;;;;4934563;29;19942;-70
2022/07/27 10:06:48;;;;;;;;;;;;;;;;;;4938937;28;19954;-70
2022/07/27 10:09:28;;;;;;;;;;;;;;;;;;4941993;28;20481;-70
2022/07/27 10:11:56;;;;;;;;;;;;;;;;;;4939531;29;20518;-71
2022/07/27 10:14:24;;;;;;;;;;;;;;;;;;4938613;29;19942;-70
2022/07/27 10:16:51;;;;;;;;;;;;;;;;;;4928874;28;19981;-71
2022/07/27 10:19:19;;;;;;;;;;;;;;;;;;4938180;28;19961;-70
2022/07/27 10:21:46;;;;;;;;;;;;;;;;;;4940672;28;20381;-70
2022/07/27 10:24:13;;;;;;;;;;;;;;;;;;4937438;29;20056;-70
2022/07/27 10:26:41;;;;;;;;;;;;;;;;;;4935046;28;20428;-70
2022/07/27 10:29:08;;;;;;;;;;;;;;;;;;4936981;28;20005;-71
2022/07/27 10:31:36;;;;;;;;;;;;;;;;;;4920144;29;19942;-70
2022/07/27 10:34:03;;;;;;;;;;;;;;;;;;4945396;29;19941;-70
2022/07/27 10:36:30;;;;;;;;;;;;;;;;;;4949374;28;19966;-69
2022/07/27 10:38:57;;;;;;;;;;;;;;;;;;4929185;29;20482;-69
2022/07/27 10:41:25;;;;;;;;;;;;;;;;;;4936626;28;19938;-69
2022/07/27 10:43:52;;;;;;;;;;;;;;;;;;4936508;29;19939;-70
2022/07/27 10:46:19;;;;;;;;;;;;;;;;;;4935076;29;20247;-69
2022/07/27 10:48:47;;;;;;;;;;;;;;;;;;4935001;28;19931;-69
2022/07/27 10:51:15;;;;;;;;;;;;;;;;;;4935476;28;19930;-69
2022/07/27 10:53:43;;;;;;;;;;;;;;;;;;4932673;28;19934;-70
2022/07/27 10:56:30;;;;;;;;;;;;;;;;;;4916192;29;19930;-69
2022/07/27 10:58:58;;;;;;;;;;;;;;;;;;4935923;28;20274;-69
2022/07/27 11:01:25;;;;;;;;;;;;;;;;;;4919152;29;20400;-70
2022/07/27 11:03:52;;;;;;;;;;;;;;;;;;4919624;29;19961;-70
2022/07/27 11:06:20;;;;;;;;;;;;;;;;;;4936029;28;19931;-69
2022/07/27 11:09:07;;;;;;;;;;;;;;;;;;4937774;28;20381;-68
2022/07/27 11:11:54;;;;;;;;;;;;;;;;;;4938542;29;20523;-69
2022/07/27 11:14:22;;;;;;;;;;;;;;;;;;4937093;29;20859;-69
2022/07/27 11:16:57;;;;;;;;;;;;;;;;;;4935239;29;20313;-70
2022/07/27 11:19:44;;;;;;;;;;;;;;;;;;4939248;28;20301;-68
2022/07/27 11:22:11;;;;;;;;;;;;;;;;;;4991753;23;19941;-73
2022/07/27 11:24:54;;;;;;;;;;;;;;;;;;4948227;28;19996;-73
2022/07/27 11:27:22;;;;;;;;;;;;;;;;;;4944019;28;19962;-71
2022/07/27 11:29:51;;;;;;;;;;;;;;;;;;4939335;28;20034;-73
2022/07/27 11:32:18;;;;;;;;;;;;;;;;;;4942173;29;20194;-72
2022/07/27 11:34:46;;;;;;;;;;;;;;;;;;4939482;29;19934;-73
2022/07/27 11:37:13;;;;;;;;;;;;;;;;;;4925750;29;19931;-72
2022/07/27 11:39:40;;;;;;;;;;;;;;;;;;4934393;28;19930;-72
2022/07/27 11:42:28;;;;;;;;;;;;;;;;;;4932961;28;20029;-73
2022/07/27 11:44:55;;;;;;;;;;;;;;;;;;4938904;29;19934;-73
2022/07/27 11:47:25;;;;;;;;;;;;;;;;;;4931979;28;19938;-73
2022/07/27 11:49:52;;;;;;;;;;;;;;;;;;4917328;29;19931;-72
2022/07/27 11:52:19;;;;;;;;;;;;;;;;;;4939017;28;20201;-73
2022/07/27 11:54:47;;;;;;;;;;;;;;;;;;4918155;29;20025;-74
2022/07/27 11:57:15;;;;;;;;;;;;;;;;;;4926432;29;19931;-74
2022/07/27 11:59:43;;;;;;;;;;;;;;;;;;4904105;29;19935;-73
2022/07/27 12:02:13;;;;;;;;;;;;;;;;;;4930823;29;20253;-72
2022/07/27 12:04:40;;;;;;;;;;;;;;;;;;4930981;29;19989;-73
2022/07/27 12:07:09;;;;;;;;;;;;;;;;;;4930975;29;19938;-72
2022/07/27 12:09:36;;;;;;;;;;;;;;;;;;4911594;29;20145;-73
2022/07/27 12:12:04;;;;;;;;;;;;;;;;;;4923293;29;19979;-72
2022/07/27 12:14:33;;;;;;;;;;;;;;;;;;4929064;29;19931;-72
2022/07/27 12:17:00;;;;;;;;;;;;;;;;;;4918912;29;19930;-71
2022/07/27 12:19:27;;;;;;;;;;;;;;;;;;4930499;29;19957;-72
2022/07/27 12:21:54;;;;;;;;;;;;;;;;;;4926591;29;20493;-74
2022/07/27 12:24:22;;;;;;;;;;;;;;;;;;4927158;29;20544;-72
2022/07/27 12:26:49;;;;;;;;;;;;;;;;;;4933502;29;20037;-72
2022/07/27 12:29:16;;;;;;;;;;;;;;;;;;4922041;28;19937;-73
2022/07/27 12:31:44;;;;;;;;;;;;;;;;;;4919698;29;20033;-73
2022/07/27 12:34:14;;;;;;;;;;;;;;;;;;4896675;29;20041;-72
2022/07/27 12:36:42;;;;;;;;;;;;;;;;;;4925259;29;20332;-72
2022/07/27 12:39:09;;;;;;;;;;;;;;;;;;4918303;29;19931;-72
2022/07/27 12:41:38;;;;;;;;;;;;;;;;;;4917000;29;20382;-72
2022/07/27 12:44:06;;;;;;;;;;;;;;;;;;4918643;29;20238;-74
2022/07/27 12:46:33;;;;;;;;;;;;;;;;;;4910223;29;20551;-73
2022/07/27 12:49:00;;;;;;;;;;;;;;;;;;4904346;29;20209;-73
2022/07/27 12:51:28;;;;;;;;;;;;;;;;;;4922463;29;19970;-73
2022/07/27 12:53:55;;;;;;;;;;;;;;;;;;4923119;29;20041;-73
2022/07/27 12:56:22;;;;;;;;;;;;;;;;;;4922210;29;19931;-72
2022/07/27 12:58:53;;;;;;;;;;;;;;;;;;4931085;29;19930;-74
2022/07/27 13:01:21;;;;;;;;;;;;;;;;;;4923707;29;19931;-74
2022/07/27 13:03:48;;;;;;;;;;;;;;;;;;4924399;28;20397;-73
2022/07/27 13:06:15;;;;;;;;;;;;;;;;;;4922717;29;19949;-73
2022/07/27 13:08:43;;;;;;;;;;;;;;;;;;4907520;29;20033;-73
2022/07/27 13:11:10;;;;;;;;;;;;;;;;;;4926373;28;19931;-72
2022/07/27 13:13:37;;;;;;;;;;;;;;;;;;4921712;29;19935;-73
2022/07/27 13:16:05;;;;;;;;;;;;;;;;;;4915300;29;19941;-74
2022/07/27 13:18:32;;;;;;;;;;;;;;;;;;4914194;29;20061;-72
2022/07/27 13:20:59;;;;;;;;;;;;;;;;;;4921541;28;20437;-74
2022/07/27 13:23:28;;;;;;;;;;;;;;;;;;4920138;29;20696;-71
2022/07/27 13:25:55;;;;;;;;;;;;;;;;;;4902447;29;19930;-73
2022/07/27 13:28:23;;;;;;;;;;;;;;;;;;4917946;29;19989;-73
2022/07/27 13:30:50;;;;;;;;;;;;;;;;;;4924560;28;20469;-72
2022/07/27 13:33:17;;;;;;;;;;;;;;;;;;4926299;29;19973;-73
2022/07/27 13:35:46;;;;;;;;;;;;;;;;;;4909099;29;20316;-74
2022/07/27 13:38:14;;;;;;;;;;;;;;;;;;4923182;29;20325;-73
2022/07/27 13:40:43;;;;;;;;;;;;;;;;;;4925738;29;20303;-74
2022/07/27 13:43:10;;;;;;;;;;;;;;;;;;4901018;29;20393;-73
2022/07/27 13:45:38;;;;;;;;;;;;;;;;;;4925154;29;20370;-72
2022/07/27 13:48:10;;;;;;;;;;;;;;;;;;4924761;28;19930;-73
2022/07/27 13:50:38;;;;;;;;;;;;;;;;;;4907199;29;19950;-73
2022/07/27 13:53:05;;;;;;;;;;;;;;;;;;4928021;28;19930;-73
2022/07/27 13:55:32;;;;;;;;;;;;;;;;;;4919285;28;20401;-73
2022/07/27 13:58:00;;;;;;;;;;;;;;;;;;4925075;29;19934;-73
2022/07/27 14:00:27;;;;;;;;;;;;;;;;;;4925557;29;19930;-73
2022/07/27 14:02:54;;;;;;;;;;;;;;;;;;4921210;29;20402;-73
2022/07/27 14:05:22;;;;;;;;;;;;;;;;;;4903502;29;19943;-73
2022/07/27 14:07:49;;;;;;;;;;;;;;;;;;4922080;29;19938;-73
2022/07/27 14:10:38;;;;;;;;;;;;;;;;;;4929229;29;20417;-73
2022/07/27 14:13:05;;;;;;;;;;;;;;;;;;4926796;29;19938;-73
2022/07/27 14:15:34;;;;;;;;;;;;;;;;;;4924899;29;19934;-73
2022/07/27 14:18:02;;;;;;;;;;;;;;;;;;4911846;29;19931;-72
2022/07/27 14:20:29;;;;;;;;;;;;;;;;;;4928198;28;20309;-72
2022/07/27 14:22:56;;;;;;;;;;;;;;;;;;4922578;29;20409;-75
2022/07/27 14:25:24;;;;;;;;;;;;;;;;;;4916994;28;20037;-74
2022/07/27 14:27:51;;;;;;;;;;;;;;;;;;4916602;29;19999;-74
2022/07/27 14:30:18;;;;;;;;;;;;;;;;;;4919863;28;20449;-72
2022/07/27 14:32:47;;;;;;;;;;;;;;;;;;4880984;29;19930;-73
2022/07/27 14:35:14;;;;;;;;;;;;;;;;;;4916196;29;20037;-73
2022/07/27 14:37:42;;;;;;;;;;;;;;;;;;4920660;28;19974;-71
2022/07/27 14:40:09;;;;;;;;;;;;;;;;;;4924332;29;19986;-73
2022/07/27 14:42:37;;;;;;;;;;;;;;;;;;4919371;29;19939;-73
2022/07/27 14:45:04;;;;;;;;;;;;;;;;;;4892711;29;19942;-71
2022/07/27 14:47:31;;;;;;;;;;;;;;;;;;4929462;29;20057;-74
2022/07/27 14:49:58;;;;;;;;;;;;;;;;;;4924708;29;19941;-73
2022/07/27 14:52:26;;;;;;;;;;;;;;;;;;4918464;29;19931;-74
2022/07/27 14:54:58;;;;;;;;;;;;;;;;;;4925469;29;20030;-77
2022/07/27 14:57:26;;;;;;;;;;;;;;;;;;4921805;29;19935;-74
2022/07/27 14:59:53;;;;;;;;;;;;;;;;;;4925213;29;19927;-76
2022/07/27 15:02:20;;;;;;;;;;;;;;;;;;4922020;29;19930;-75
2022/07/27 15:04:48;;;;;;;;;;;;;;;;;;4908584;29;19931;-73
2022/07/27 15:07:15;;;;;;;;;;;;;;;;;;4915379;29;19941;-76
2022/07/27 15:09:42;;;;;;;;;;;;;;;;;;4925117;29;19930;-77
2022/07/27 15:12:10;;;;;;;;;;;;;;;;;;4925170;29;20710;-75
2022/07/27 15:14:38;;;;;;;;;;;;;;;;;;4910223;29;20010;-76
2022/07/27 15:17:05;;;;;;;;;;;;;;;;;;4917770;29;19943;-76
2022/07/27 15:19:33;;;;;;;;;;;;;;;;;;4925024;29;19931;-75
2022/07/27 15:22:00;;;;;;;;;;;;;;;;;;4921317;29;19982;-75
2022/07/27 15:24:27;;;;;;;;;;;;;;;;;;4930237;29;19927;-76
2022/07/27 15:26:55;;;;;;;;;;;;;;;;;;4923265;29;19985;-75
2022/07/27 15:29:22;;;;;;;;;;;;;;;;;;4932755;29;19973;-75
2022/07/27 15:31:49;;;;;;;;;;;;;;;;;;4931666;29;19994;-76
2022/07/27 15:34:17;;;;;;;;;;;;;;;;;;4932832;29;20474;-76
2022/07/27 15:36:44;;;;;;;;;;;;;;;;;;4932698;29;19931;-76
2022/07/27 15:39:19;;;;;;;;;;;;;;;;;;4932794;29;20322;-75
2022/07/27 15:41:46;;;;;;;;;;;;;;;;;;4933328;29;19949;-76
2022/07/27 15:44:14;;;;;;;;;;;;;;;;;;4933222;29;19986;-76
2022/07/27 15:46:41;;;;;;;;;;;;;;;;;;4933175;29;19930;-73
2022/07/27 15:49:08;;;;;;;;;;;;;;;;;;4932850;29;19931;-75
2022/07/27 15:51:36;;;;;;;;;;;;;;;;;;4931954;29;19966;-75
2022/07/27 15:54:03;;;;;;;;;;;;;;;;;;4932517;29;20041;-75
2022/07/27 15:56:31;;;;;;;;;;;;;;;;;;4932837;29;19930;-75
2022/07/27 15:58:58;;;;;;;;;;;;;;;;;;4931952;29;19930;-76
2022/07/27 16:01:25;;;;;;;;;;;;;;;;;;4932518;29;19933;-75
2022/07/27 16:04:01;;;;;;;;;;;;;;;;;;4931760;29;19927;-76
2022/07/27 16:06:29;;;;;;;;;;;;;;;;;;4932765;29;19934;-75
2022/07/27 16:09:00;;;;;;;;;;;;;;;;;;4932661;29;20378;-75
2022/07/27 16:11:27;;;;;;;;;;;;;;;;;;4931505;29;20398;-75
2022/07/27 16:13:54;;;;;;;;;;;;;;;;;;4928760;29;20361;-75
2022/07/27 16:16:23;;;;;;;;;;;;;;;;;;4925389;29;20360;-76
2022/07/27 16:18:51;;;;;;;;;;;;;;;;;;4902194;29;19953;-76
2022/07/27 16:21:18;;;;;;;;;;;;;;;;;;4915942;29;19934;-76
2022/07/27 16:23:45;;;;;;;;;;;;;;;;;;4921373;29;19930;-76
2022/07/27 16:26:13;;;;;;;;;;;;;;;;;;4921956;29;19953;-75
2022/07/27 16:28:40;;;;;;;;;;;;;;;;;;4918095;29;20546;-75
2022/07/27 16:31:07;;;;;;;;;;;;;;;;;;4924925;29;20015;-75
2022/07/27 16:33:35;;;;;;;;;;;;;;;;;;4928261;29;19935;-75
2022/07/27 16:36:04;;;;;;;;;;;;;;;;;;4912856;29;19965;-77
2022/07/27 16:38:31;;;;;;;;;;;;;;;;;;4911973;29;19935;-75
2022/07/27 16:40:58;;;;;;;;;;;;;;;;;;4926803;29;19939;-76
2022/07/27 16:43:28;;;;;;;;;;;;;;;;;;4930485;29;20410;-77
2022/07/27 16:46:04;;;;;;;;;;;;;;;;;;4929997;29;19933;-77
2022/07/27 16:48:32;;;;;;;;;;;;;;;;;;4933406;29;19935;-80
2022/07/27 16:51:05;;;;;;;;;;;;;;;;;;4928200;29;19931;-78
2022/07/27 16:53:32;;;;;;;;;;;;;;;;;;4930016;29;20436;-76
2022/07/27 16:56:00;;;;;;;;;;;;;;;;;;4913727;29;20472;-77